sensor_id;sensor_type;location;lat;lon;timestamp;P1;durP1;ratioP1;P2;durP2;ratioP2
3133;SDS011;1577;49.912;10.924;2022-08-02T00:00:14;4.60;;;3.20;;
3133;SDS011;1577;49.912;10.924;2022-08-02T00:02:44;5.67;;;3.50;;
3133;SDS011;1577;49.912;10.924;2022-08-02T00:05:11;5.97;;;3.50;;
3133;SDS011;1577;49.912;10.924;2022-08-02T00:07:37;6.23;;;3.33;;
3133;SDS011;1577;49.912;10.924;2022-08-02T00:10:04;5.90;;;3.40;;
3133;SDS011;1577;49.912;10.924;2022-08-02T00:12:30;4.10;;;2.70;;
3133;SDS011;1577;49.912;10.924;2022-08-02T00:14:56;3.90;;;3.07;;
3133;SDS011;1577;49.912;10.924;2022-08-02T00:17:22;4.20;;;2.53;;
3133;SDS011;1577;49.912;10.924;2022-08-02T00:19:47;3.63;;;3.07;;
3133;SDS011;1577;49.912;10.924;2022-08-02T00:22:13;3.83;;;3.17;;
3133;SDS011;1577;49.912;10.924;2022-08-02T00:24:39;3.73;;;2.53;;
3133;SDS011;1577;49.912;10.924;2022-08-02T00:27:04;4.70;;;3.27;;
3133;SDS011;1577;49.912;10.924;2022-08-02T00:29:32;3.40;;;2.90;;
3133;SDS011;1577;49.912;10.924;2022-08-02T00:31:59;3.67;;;2.73;;
3133;SDS011;1577;49.912;10.924;2022-08-02T00:34:25;4.63;;;2.80;;
3133;SDS011;1577;49.912;10.924;2022-08-02T00:36:50;3.70;;;2.93;;
3133;SDS011;1577;49.912;10.924;2022-08-02T00:39:16;3.07;;;2.57;;
3133;SDS011;1577;49.912;10.924;2022-08-02T00:41:46;3.30;;;2.70;;
3133;SDS011;1577;49.912;10.924;2022-08-02T00:44:14;3.57;;;2.87;;
3133;SDS011;1577;49.912;10.924;2022-08-02T00:46:41;3.20;;;2.70;;
3133;SDS011;1577;49.912;10.924;2022-08-02T00:49:07;4.20;;;3.00;;
3133;SDS011;1577;49.912;10.924;2022-08-02T00:51:32;3.33;;;3.00;;
3133;SDS011;1577;49.912;10.924;2022-08-02T00:53:58;5.13;;;3.07;;
3133;SDS011;1577;49.912;10.924;2022-08-02T00:56:24;3.70;;;2.80;;
3133;SDS011;1577;49.912;10.924;2022-08-02T00:58:49;3.20;;;2.60;;
3133;SDS011;1577;49.912;10.924;2022-08-02T01:01:15;4.73;;;2.70;;
3133;SDS011;1577;49.912;10.924;2022-08-02T01:03:41;3.13;;;2.67;;
3133;SDS011;1577;49.912;10.924;2022-08-02T01:06:06;3.50;;;3.13;;
3133;SDS011;1577;49.912;10.924;2022-08-02T01:08:32;3.27;;;2.70;;
3133;SDS011;1577;49.912;10.924;2022-08-02T01:10:58;3.13;;;2.83;;
3133;SDS011;1577;49.912;10.924;2022-08-02T01:13:23;4.63;;;2.93;;
3133;SDS011;1577;49.912;10.924;2022-08-02T01:15:59;3.37;;;3.07;;
3133;SDS011;1577;49.912;10.924;2022-08-02T01:18:32;3.50;;;2.40;;
3133;SDS011;1577;49.912;10.924;2022-08-02T01:21:11;3.20;;;2.60;;
3133;SDS011;1577;49.912;10.924;2022-08-02T01:24:02;4.37;;;3.20;;
3133;SDS011;1577;49.912;10.924;2022-08-02T01:26:49;3.13;;;2.40;;
3133;SDS011;1577;49.912;10.924;2022-08-02T01:29:25;3.60;;;2.53;;
3133;SDS011;1577;49.912;10.924;2022-08-02T01:32:01;3.53;;;3.00;;
3133;SDS011;1577;49.912;10.924;2022-08-02T01:34:52;3.10;;;2.80;;
3133;SDS011;1577;49.912;10.924;2022-08-02T01:40:09;3.63;;;2.37;;
3133;SDS011;1577;49.912;10.924;2022-08-02T01:42:39;3.53;;;2.70;;
3133;SDS011;1577;49.912;10.924;2022-08-02T01:45:10;2.70;;;2.37;;
3133;SDS011;1577;49.912;10.924;2022-08-02T01:47:38;4.00;;;2.90;;
3133;SDS011;1577;49.912;10.924;2022-08-02T01:50:05;2.70;;;2.33;;
3133;SDS011;1577;49.912;10.924;2022-08-02T01:52:33;2.70;;;2.40;;
3133;SDS011;1577;49.912;10.924;2022-08-02T01:55:06;2.77;;;2.17;;
3133;SDS011;1577;49.912;10.924;2022-08-02T01:57:45;3.53;;;2.50;;
3133;SDS011;1577;49.912;10.924;2022-08-02T02:00:13;2.90;;;2.60;;
3133;SDS011;1577;49.912;10.924;2022-08-02T02:02:41;3.30;;;2.60;;
3133;SDS011;1577;49.912;10.924;2022-08-02T02:05:13;3.53;;;2.40;;
3133;SDS011;1577;49.912;10.924;2022-08-02T02:07:44;2.87;;;1.90;;
3133;SDS011;1577;49.912;10.924;2022-08-02T02:10:13;3.50;;;2.43;;
3133;SDS011;1577;49.912;10.924;2022-08-02T02:12:41;3.80;;;2.90;;
3133;SDS011;1577;49.912;10.924;2022-08-02T02:15:11;2.93;;;1.97;;
3133;SDS011;1577;49.912;10.924;2022-08-02T02:17:38;3.53;;;2.63;;
3133;SDS011;1577;49.912;10.924;2022-08-02T02:20:08;2.17;;;1.83;;
3133;SDS011;1577;49.912;10.924;2022-08-02T02:22:38;3.10;;;2.40;;
3133;SDS011;1577;49.912;10.924;2022-08-02T02:25:05;2.90;;;2.40;;
3133;SDS011;1577;49.912;10.924;2022-08-02T02:27:32;2.30;;;2.10;;
3133;SDS011;1577;49.912;10.924;2022-08-02T02:29:59;3.53;;;2.37;;
3133;SDS011;1577;49.912;10.924;2022-08-02T02:32:27;4.50;;;2.20;;
3133;SDS011;1577;49.912;10.924;2022-08-02T02:34:53;2.87;;;2.13;;
3133;SDS011;1577;49.912;10.924;2022-08-02T02:37:21;6.17;;;2.80;;
3133;SDS011;1577;49.912;10.924;2022-08-02T02:39:49;2.50;;;2.30;;
3133;SDS011;1577;49.912;10.924;2022-08-02T02:42:16;2.70;;;2.20;;
3133;SDS011;1577;49.912;10.924;2022-08-02T02:44:44;2.30;;;1.90;;
3133;SDS011;1577;49.912;10.924;2022-08-02T02:47:11;4.20;;;2.20;;
3133;SDS011;1577;49.912;10.924;2022-08-02T02:49:40;1.93;;;1.70;;
3133;SDS011;1577;49.912;10.924;2022-08-02T02:52:07;2.50;;;2.30;;
3133;SDS011;1577;49.912;10.924;2022-08-02T02:54:34;3.20;;;2.30;;
3133;SDS011;1577;49.912;10.924;2022-08-02T02:57:02;4.83;;;2.20;;
3133;SDS011;1577;49.912;10.924;2022-08-02T02:59:30;2.30;;;2.10;;
3133;SDS011;1577;49.912;10.924;2022-08-02T03:01:58;2.63;;;1.93;;
3133;SDS011;1577;49.912;10.924;2022-08-02T03:04:26;2.53;;;2.00;;
3133;SDS011;1577;49.912;10.924;2022-08-02T03:06:52;2.97;;;2.50;;
3133;SDS011;1577;49.912;10.924;2022-08-02T03:09:18;2.50;;;2.30;;
3133;SDS011;1577;49.912;10.924;2022-08-02T03:11:44;3.70;;;1.97;;
3133;SDS011;1577;49.912;10.924;2022-08-02T03:14:10;3.83;;;2.30;;
3133;SDS011;1577;49.912;10.924;2022-08-02T03:16:46;2.93;;;2.13;;
3133;SDS011;1577;49.912;10.924;2022-08-02T03:19:14;2.90;;;2.30;;
3133;SDS011;1577;49.912;10.924;2022-08-02T03:21:41;3.80;;;2.53;;
3133;SDS011;1577;49.912;10.924;2022-08-02T03:24:07;3.00;;;2.50;;
3133;SDS011;1577;49.912;10.924;2022-08-02T03:26:33;2.80;;;2.30;;
3133;SDS011;1577;49.912;10.924;2022-08-02T03:28:59;3.27;;;2.60;;
3133;SDS011;1577;49.912;10.924;2022-08-02T03:31:25;3.63;;;2.70;;
3133;SDS011;1577;49.912;10.924;2022-08-02T03:33:51;2.33;;;2.13;;
3133;SDS011;1577;49.912;10.924;2022-08-02T03:36:19;3.73;;;2.40;;
3133;SDS011;1577;49.912;10.924;2022-08-02T03:38:46;4.07;;;2.87;;
3133;SDS011;1577;49.912;10.924;2022-08-02T03:41:15;3.93;;;2.50;;
3133;SDS011;1577;49.912;10.924;2022-08-02T03:43:43;4.43;;;2.60;;
3133;SDS011;1577;49.912;10.924;2022-08-02T03:46:11;3.23;;;2.70;;
3133;SDS011;1577;49.912;10.924;2022-08-02T03:48:38;2.80;;;2.43;;
3133;SDS011;1577;49.912;10.924;2022-08-02T03:51:05;3.97;;;2.70;;
3133;SDS011;1577;49.912;10.924;2022-08-02T03:53:31;4.50;;;2.40;;
3133;SDS011;1577;49.912;10.924;2022-08-02T03:55:58;3.03;;;2.40;;
3133;SDS011;1577;49.912;10.924;2022-08-02T03:58:24;2.90;;;2.70;;
3133;SDS011;1577;49.912;10.924;2022-08-02T04:00:51;3.20;;;2.63;;
3133;SDS011;1577;49.912;10.924;2022-08-02T04:03:18;3.43;;;2.70;;
3133;SDS011;1577;49.912;10.924;2022-08-02T04:05:44;3.30;;;2.90;;
3133;SDS011;1577;49.912;10.924;2022-08-02T04:08:10;5.33;;;2.17;;
3133;SDS011;1577;49.912;10.924;2022-08-02T04:10:36;2.97;;;2.27;;
3133;SDS011;1577;49.912;10.924;2022-08-02T04:13:23;2.87;;;2.47;;
3133;SDS011;1577;49.912;10.924;2022-08-02T04:15:52;2.43;;;2.20;;
3133;SDS011;1577;49.912;10.924;2022-08-02T04:18:21;3.17;;;2.63;;
3133;SDS011;1577;49.912;10.924;2022-08-02T04:20:52;2.63;;;2.17;;
3133;SDS011;1577;49.912;10.924;2022-08-02T04:23:20;3.67;;;2.80;;
3133;SDS011;1577;49.912;10.924;2022-08-02T04:25:49;3.97;;;2.93;;
3133;SDS011;1577;49.912;10.924;2022-08-02T04:28:15;2.97;;;2.50;;
3133;SDS011;1577;49.912;10.924;2022-08-02T04:30:41;4.37;;;2.57;;
3133;SDS011;1577;49.912;10.924;2022-08-02T04:33:07;5.50;;;2.50;;
3133;SDS011;1577;49.912;10.924;2022-08-02T04:35:34;2.67;;;2.33;;
3133;SDS011;1577;49.912;10.924;2022-08-02T04:38:00;3.40;;;2.53;;
3133;SDS011;1577;49.912;10.924;2022-08-02T04:40:26;9.53;;;3.00;;
3133;SDS011;1577;49.912;10.924;2022-08-02T04:42:52;2.83;;;2.40;;
3133;SDS011;1577;49.912;10.924;2022-08-02T04:45:17;2.90;;;2.30;;
3133;SDS011;1577;49.912;10.924;2022-08-02T04:47:45;3.13;;;2.00;;
3133;SDS011;1577;49.912;10.924;2022-08-02T04:50:11;3.43;;;2.57;;
3133;SDS011;1577;49.912;10.924;2022-08-02T04:52:36;2.70;;;2.33;;
3133;SDS011;1577;49.912;10.924;2022-08-02T04:55:02;3.33;;;2.47;;
3133;SDS011;1577;49.912;10.924;2022-08-02T04:57:28;2.40;;;2.00;;
3133;SDS011;1577;49.912;10.924;2022-08-02T05:00:12;2.80;;;2.00;;
3133;SDS011;1577;49.912;10.924;2022-08-02T05:02:38;2.40;;;2.17;;
3133;SDS011;1577;49.912;10.924;2022-08-02T05:05:04;2.77;;;2.20;;
3133;SDS011;1577;49.912;10.924;2022-08-02T05:07:30;2.87;;;2.30;;
3133;SDS011;1577;49.912;10.924;2022-08-02T05:09:56;2.50;;;2.17;;
3133;SDS011;1577;49.912;10.924;2022-08-02T05:12:21;2.47;;;2.03;;
3133;SDS011;1577;49.912;10.924;2022-08-02T05:14:48;5.90;;;2.90;;
3133;SDS011;1577;49.912;10.924;2022-08-02T05:17:14;2.53;;;2.33;;
3133;SDS011;1577;49.912;10.924;2022-08-02T05:19:39;2.80;;;2.50;;
3133;SDS011;1577;49.912;10.924;2022-08-02T05:22:05;2.60;;;1.70;;
3133;SDS011;1577;49.912;10.924;2022-08-02T05:24:31;2.80;;;2.50;;
3133;SDS011;1577;49.912;10.924;2022-08-02T05:26:57;4.97;;;2.67;;
3133;SDS011;1577;49.912;10.924;2022-08-02T05:29:22;3.27;;;2.67;;
3133;SDS011;1577;49.912;10.924;2022-08-02T05:31:48;4.10;;;2.50;;
3133;SDS011;1577;49.912;10.924;2022-08-02T05:34:13;3.17;;;2.40;;
3133;SDS011;1577;49.912;10.924;2022-08-02T05:36:39;2.20;;;2.00;;
3133;SDS011;1577;49.912;10.924;2022-08-02T05:39:05;3.73;;;2.47;;
3133;SDS011;1577;49.912;10.924;2022-08-02T05:41:31;3.40;;;2.27;;
3133;SDS011;1577;49.912;10.924;2022-08-02T05:43:57;2.67;;;2.17;;
3133;SDS011;1577;49.912;10.924;2022-08-02T05:46:22;1.83;;;1.73;;
3133;SDS011;1577;49.912;10.924;2022-08-02T05:48:48;2.30;;;2.10;;
3133;SDS011;1577;49.912;10.924;2022-08-02T05:51:27;2.47;;;1.70;;
3133;SDS011;1577;49.912;10.924;2022-08-02T05:56:37;3.30;;;1.97;;
3133;SDS011;1577;49.912;10.924;2022-08-02T05:59:30;2.37;;;2.07;;
3133;SDS011;1577;49.912;10.924;2022-08-02T06:02:03;2.67;;;2.20;;
3133;SDS011;1577;49.912;10.924;2022-08-02T06:04:55;5.00;;;2.70;;
3133;SDS011;1577;49.912;10.924;2022-08-02T06:07:43;2.40;;;2.20;;
3133;SDS011;1577;49.912;10.924;2022-08-02T06:10:10;2.27;;;2.07;;
3133;SDS011;1577;49.912;10.924;2022-08-02T06:13:22;2.30;;;2.03;;
3133;SDS011;1577;49.912;10.924;2022-08-02T06:15:40;3.13;;;2.10;;
3133;SDS011;1577;49.912;10.924;2022-08-02T06:18:07;3.40;;;2.10;;
3133;SDS011;1577;49.912;10.924;2022-08-02T06:20:33;2.40;;;2.10;;
3133;SDS011;1577;49.912;10.924;2022-08-02T06:23:03;4.63;;;3.00;;
3133;SDS011;1577;49.912;10.924;2022-08-02T06:25:31;2.43;;;2.23;;
3133;SDS011;1577;49.912;10.924;2022-08-02T06:28:02;2.30;;;2.10;;
3133;SDS011;1577;49.912;10.924;2022-08-02T06:30:30;4.13;;;1.70;;
3133;SDS011;1577;49.912;10.924;2022-08-02T06:32:56;2.50;;;2.30;;
3133;SDS011;1577;49.912;10.924;2022-08-02T06:38:21;3.17;;;1.97;;
3133;SDS011;1577;49.912;10.924;2022-08-02T06:46:11;2.67;;;1.50;;
3133;SDS011;1577;49.912;10.924;2022-08-02T06:48:36;2.23;;;2.00;;
3133;SDS011;1577;49.912;10.924;2022-08-02T06:51:03;3.00;;;1.70;;
3133;SDS011;1577;49.912;10.924;2022-08-02T06:53:29;1.67;;;1.57;;
3133;SDS011;1577;49.912;10.924;2022-08-02T06:55:54;2.90;;;1.50;;
3133;SDS011;1577;49.912;10.924;2022-08-02T06:58:20;3.40;;;1.80;;
3133;SDS011;1577;49.912;10.924;2022-08-02T07:00:46;3.70;;;1.93;;
3133;SDS011;1577;49.912;10.924;2022-08-02T07:03:12;3.40;;;2.13;;
3133;SDS011;1577;49.912;10.924;2022-08-02T07:05:38;3.37;;;1.30;;
3133;SDS011;1577;49.912;10.924;2022-08-02T07:08:04;2.40;;;1.63;;
3133;SDS011;1577;49.912;10.924;2022-08-02T07:10:30;1.60;;;1.40;;
3133;SDS011;1577;49.912;10.924;2022-08-02T07:12:56;1.90;;;1.40;;
3133;SDS011;1577;49.912;10.924;2022-08-02T07:15:21;1.73;;;1.60;;
3133;SDS011;1577;49.912;10.924;2022-08-02T07:17:47;2.13;;;1.87;;
3133;SDS011;1577;49.912;10.924;2022-08-02T07:20:12;1.77;;;1.67;;
3133;SDS011;1577;49.912;10.924;2022-08-02T07:22:39;1.47;;;1.37;;
3133;SDS011;1577;49.912;10.924;2022-08-02T07:25:05;2.33;;;1.67;;
3133;SDS011;1577;49.912;10.924;2022-08-02T07:27:31;1.33;;;1.23;;
3133;SDS011;1577;49.912;10.924;2022-08-02T07:29:57;1.50;;;1.33;;
3133;SDS011;1577;49.912;10.924;2022-08-02T07:32:24;1.40;;;1.30;;
3133;SDS011;1577;49.912;10.924;2022-08-02T07:34:52;2.60;;;1.70;;
3133;SDS011;1577;49.912;10.924;2022-08-02T07:37:21;1.40;;;1.30;;
3133;SDS011;1577;49.912;10.924;2022-08-02T07:39:49;1.70;;;1.37;;
3133;SDS011;1577;49.912;10.924;2022-08-02T07:42:15;1.40;;;1.20;;
3133;SDS011;1577;49.912;10.924;2022-08-02T07:44:40;1.20;;;1.03;;
3133;SDS011;1577;49.912;10.924;2022-08-02T07:47:06;1.50;;;1.10;;
3133;SDS011;1577;49.912;10.924;2022-08-02T07:49:31;1.20;;;1.10;;
3133;SDS011;1577;49.912;10.924;2022-08-02T07:51:57;2.57;;;1.63;;
3133;SDS011;1577;49.912;10.924;2022-08-02T07:54:23;1.43;;;1.23;;
3133;SDS011;1577;49.912;10.924;2022-08-02T07:56:49;1.10;;;1.00;;
3133;SDS011;1577;49.912;10.924;2022-08-02T07:59:17;1.50;;;1.40;;
3133;SDS011;1577;49.912;10.924;2022-08-02T08:01:42;1.20;;;1.10;;
3133;SDS011;1577;49.912;10.924;2022-08-02T08:04:08;2.43;;;1.07;;
3133;SDS011;1577;49.912;10.924;2022-08-02T08:06:34;1.37;;;1.27;;
3133;SDS011;1577;49.912;10.924;2022-08-02T08:08:59;1.40;;;1.27;;
3133;SDS011;1577;49.912;10.924;2022-08-02T08:11:25;1.70;;;1.10;;
3133;SDS011;1577;49.912;10.924;2022-08-02T08:13:50;2.10;;;1.20;;
3133;SDS011;1577;49.912;10.924;2022-08-02T08:16:16;1.30;;;1.20;;
3133;SDS011;1577;49.912;10.924;2022-08-02T08:18:42;2.60;;;1.30;;
3133;SDS011;1577;49.912;10.924;2022-08-02T08:21:08;2.30;;;1.80;;
3133;SDS011;1577;49.912;10.924;2022-08-02T08:23:34;1.37;;;1.20;;
3133;SDS011;1577;49.912;10.924;2022-08-02T08:26:00;2.17;;;1.30;;
3133;SDS011;1577;49.912;10.924;2022-08-02T08:28:27;2.07;;;1.10;;
3133;SDS011;1577;49.912;10.924;2022-08-02T08:30:52;1.93;;;1.23;;
3133;SDS011;1577;49.912;10.924;2022-08-02T08:33:18;1.50;;;1.20;;
3133;SDS011;1577;49.912;10.924;2022-08-02T08:35:44;1.40;;;1.20;;
3133;SDS011;1577;49.912;10.924;2022-08-02T08:38:10;1.47;;;1.37;;
3133;SDS011;1577;49.912;10.924;2022-08-02T08:40:36;1.40;;;1.30;;
3133;SDS011;1577;49.912;10.924;2022-08-02T08:43:02;2.50;;;1.27;;
3133;SDS011;1577;49.912;10.924;2022-08-02T08:45:28;1.30;;;1.20;;
3133;SDS011;1577;49.912;10.924;2022-08-02T08:48:16;1.20;;;1.10;;
3133;SDS011;1577;49.912;10.924;2022-08-02T08:51:28;1.40;;;1.30;;
3133;SDS011;1577;49.912;10.924;2022-08-02T08:53:41;2.60;;;1.40;;
3133;SDS011;1577;49.912;10.924;2022-08-02T08:56:08;1.30;;;1.20;;
3133;SDS011;1577;49.912;10.924;2022-08-02T08:58:36;1.20;;;1.10;;
3133;SDS011;1577;49.912;10.924;2022-08-02T09:01:03;1.50;;;1.20;;
3133;SDS011;1577;49.912;10.924;2022-08-02T09:03:28;1.83;;;1.00;;
3133;SDS011;1577;49.912;10.924;2022-08-02T09:05:56;1.77;;;1.10;;
3133;SDS011;1577;49.912;10.924;2022-08-02T09:08:22;2.70;;;1.40;;
3133;SDS011;1577;49.912;10.924;2022-08-02T09:10:48;2.47;;;0.93;;
3133;SDS011;1577;49.912;10.924;2022-08-02T09:13:24;1.60;;;1.20;;
3133;SDS011;1577;49.912;10.924;2022-08-02T09:16:01;3.60;;;1.77;;
3133;SDS011;1577;49.912;10.924;2022-08-02T09:18:36;1.10;;;1.00;;
3133;SDS011;1577;49.912;10.924;2022-08-02T09:21:04;2.80;;;1.30;;
3133;SDS011;1577;49.912;10.924;2022-08-02T09:23:35;1.30;;;1.20;;
3133;SDS011;1577;49.912;10.924;2022-08-02T09:26:21;1.40;;;1.20;;
3133;SDS011;1577;49.912;10.924;2022-08-02T09:28:49;1.87;;;1.20;;
3133;SDS011;1577;49.912;10.924;2022-08-02T09:31:17;1.43;;;1.10;;
3133;SDS011;1577;49.912;10.924;2022-08-02T09:33:50;1.50;;;1.40;;
3133;SDS011;1577;49.912;10.924;2022-08-02T09:36:21;2.20;;;1.17;;
3133;SDS011;1577;49.912;10.924;2022-08-02T09:39:00;1.40;;;1.00;;
3133;SDS011;1577;49.912;10.924;2022-08-02T09:41:28;1.40;;;1.30;;
3133;SDS011;1577;49.912;10.924;2022-08-02T09:43:56;2.80;;;1.63;;
3133;SDS011;1577;49.912;10.924;2022-08-02T09:46:23;1.67;;;1.40;;
3133;SDS011;1577;49.912;10.924;2022-08-02T09:49:01;1.27;;;1.17;;
3133;SDS011;1577;49.912;10.924;2022-08-02T09:51:29;1.40;;;1.30;;
3133;SDS011;1577;49.912;10.924;2022-08-02T09:53:57;2.13;;;1.60;;
3133;SDS011;1577;49.912;10.924;2022-08-02T09:56:25;1.20;;;1.10;;
3133;SDS011;1577;49.912;10.924;2022-08-02T09:58:53;2.23;;;1.47;;
3133;SDS011;1577;49.912;10.924;2022-08-02T10:01:25;2.50;;;1.50;;
3133;SDS011;1577;49.912;10.924;2022-08-02T10:03:59;1.73;;;1.63;;
3133;SDS011;1577;49.912;10.924;2022-08-02T10:06:29;1.73;;;1.63;;
3133;SDS011;1577;49.912;10.924;2022-08-02T10:08:55;1.70;;;1.57;;
3133;SDS011;1577;49.912;10.924;2022-08-02T10:11:22;2.57;;;1.80;;
3133;SDS011;1577;49.912;10.924;2022-08-02T10:13:48;1.77;;;1.47;;
3133;SDS011;1577;49.912;10.924;2022-08-02T10:16:15;1.97;;;1.50;;
3133;SDS011;1577;49.912;10.924;2022-08-02T10:18:44;2.40;;;1.50;;
3133;SDS011;1577;49.912;10.924;2022-08-02T10:21:11;3.50;;;1.70;;
3133;SDS011;1577;49.912;10.924;2022-08-02T10:23:39;2.87;;;1.47;;
3133;SDS011;1577;49.912;10.924;2022-08-02T10:26:07;1.80;;;1.70;;
3133;SDS011;1577;49.912;10.924;2022-08-02T10:28:36;3.93;;;2.30;;
3133;SDS011;1577;49.912;10.924;2022-08-02T10:31:04;1.77;;;1.67;;
3133;SDS011;1577;49.912;10.924;2022-08-02T10:33:31;1.90;;;1.70;;
3133;SDS011;1577;49.912;10.924;2022-08-02T10:36:00;1.67;;;1.47;;
3133;SDS011;1577;49.912;10.924;2022-08-02T10:38:28;5.80;;;1.80;;
3133;SDS011;1577;49.912;10.924;2022-08-02T10:40:54;1.37;;;1.17;;
3133;SDS011;1577;49.912;10.924;2022-08-02T10:49:02;2.17;;;1.80;;
3133;SDS011;1577;49.912;10.924;2022-08-02T10:56:56;1.63;;;1.53;;
3133;SDS011;1577;49.912;10.924;2022-08-02T10:59:33;2.07;;;1.80;;
3133;SDS011;1577;49.912;10.924;2022-08-02T11:02:01;1.60;;;1.47;;
3133;SDS011;1577;49.912;10.924;2022-08-02T11:09:38;1.73;;;1.47;;
3133;SDS011;1577;49.912;10.924;2022-08-02T11:12:12;2.63;;;1.53;;
3133;SDS011;1577;49.912;10.924;2022-08-02T11:14:40;1.53;;;1.30;;
3133;SDS011;1577;49.912;10.924;2022-08-02T11:17:08;1.70;;;1.60;;
3133;SDS011;1577;49.912;10.924;2022-08-02T11:19:34;1.60;;;1.50;;
3133;SDS011;1577;49.912;10.924;2022-08-02T11:22:19;1.80;;;1.60;;
3133;SDS011;1577;49.912;10.924;2022-08-02T11:24:45;1.33;;;1.23;;
3133;SDS011;1577;49.912;10.924;2022-08-02T11:27:20;1.37;;;1.27;;
3133;SDS011;1577;49.912;10.924;2022-08-02T11:29:45;1.67;;;1.30;;
3133;SDS011;1577;49.912;10.924;2022-08-02T11:32:19;2.30;;;1.47;;
3133;SDS011;1577;49.912;10.924;2022-08-02T11:34:47;1.47;;;1.37;;
3133;SDS011;1577;49.912;10.924;2022-08-02T11:37:30;1.40;;;1.30;;
3133;SDS011;1577;49.912;10.924;2022-08-02T11:39:57;2.23;;;1.40;;
3133;SDS011;1577;49.912;10.924;2022-08-02T11:42:35;3.20;;;1.70;;
3133;SDS011;1577;49.912;10.924;2022-08-02T11:45:03;1.90;;;1.60;;
3133;SDS011;1577;49.912;10.924;2022-08-02T11:47:30;3.40;;;1.70;;
3133;SDS011;1577;49.912;10.924;2022-08-02T11:50:04;1.97;;;1.60;;
3133;SDS011;1577;49.912;10.924;2022-08-02T11:52:33;1.83;;;1.40;;
3133;SDS011;1577;49.912;10.924;2022-08-02T11:55:00;2.07;;;1.20;;
3133;SDS011;1577;49.912;10.924;2022-08-02T11:57:26;1.43;;;1.33;;
3133;SDS011;1577;49.912;10.924;2022-08-02T11:59:52;1.80;;;1.70;;
3133;SDS011;1577;49.912;10.924;2022-08-02T12:02:20;1.90;;;1.53;;
3133;SDS011;1577;49.912;10.924;2022-08-02T12:04:56;1.80;;;1.37;;
3133;SDS011;1577;49.912;10.924;2022-08-02T12:07:27;1.90;;;1.67;;
3133;SDS011;1577;49.912;10.924;2022-08-02T12:09:57;2.93;;;1.70;;
3133;SDS011;1577;49.912;10.924;2022-08-02T12:18:01;2.00;;;1.70;;
3133;SDS011;1577;49.912;10.924;2022-08-02T12:20:46;2.90;;;1.60;;
3133;SDS011;1577;49.912;10.924;2022-08-02T12:23:11;2.93;;;1.70;;
3133;SDS011;1577;49.912;10.924;2022-08-02T12:25:37;1.50;;;1.40;;
3133;SDS011;1577;49.912;10.924;2022-08-02T12:28:12;2.33;;;1.40;;
3133;SDS011;1577;49.912;10.924;2022-08-02T12:30:51;1.60;;;1.50;;
3133;SDS011;1577;49.912;10.924;2022-08-02T12:33:19;2.23;;;1.20;;
3133;SDS011;1577;49.912;10.924;2022-08-02T12:35:45;3.03;;;1.33;;
3133;SDS011;1577;49.912;10.924;2022-08-02T12:38:11;2.93;;;1.23;;
3133;SDS011;1577;49.912;10.924;2022-08-02T12:40:37;4.80;;;3.10;;
3133;SDS011;1577;49.912;10.924;2022-08-02T12:43:04;1.57;;;1.30;;
3133;SDS011;1577;49.912;10.924;2022-08-02T12:45:48;2.47;;;1.40;;
3133;SDS011;1577;49.912;10.924;2022-08-02T12:48:15;2.00;;;1.33;;
3133;SDS011;1577;49.912;10.924;2022-08-02T12:50:53;2.57;;;1.27;;
3133;SDS011;1577;49.912;10.924;2022-08-02T12:53:19;1.80;;;1.20;;
3133;SDS011;1577;49.912;10.924;2022-08-02T12:55:46;1.50;;;1.40;;
3133;SDS011;1577;49.912;10.924;2022-08-02T12:58:12;1.50;;;1.30;;
3133;SDS011;1577;49.912;10.924;2022-08-02T13:00:38;1.93;;;1.20;;
3133;SDS011;1577;49.912;10.924;2022-08-02T13:03:04;1.93;;;1.30;;
3133;SDS011;1577;49.912;10.924;2022-08-02T13:05:33;2.20;;;1.40;;
3133;SDS011;1577;49.912;10.924;2022-08-02T13:07:59;1.30;;;1.20;;
3133;SDS011;1577;49.912;10.924;2022-08-02T13:10:26;1.30;;;1.20;;
3133;SDS011;1577;49.912;10.924;2022-08-02T13:12:52;1.90;;;1.30;;
3133;SDS011;1577;49.912;10.924;2022-08-02T13:15:18;1.43;;;1.20;;
3133;SDS011;1577;49.912;10.924;2022-08-02T13:17:44;2.40;;;1.70;;
3133;SDS011;1577;49.912;10.924;2022-08-02T13:20:10;1.70;;;1.50;;
3133;SDS011;1577;49.912;10.924;2022-08-02T13:22:38;1.23;;;1.13;;
3133;SDS011;1577;49.912;10.924;2022-08-02T13:25:05;1.20;;;1.10;;
3133;SDS011;1577;49.912;10.924;2022-08-02T13:27:32;2.73;;;1.30;;
3133;SDS011;1577;49.912;10.924;2022-08-02T13:29:58;2.03;;;1.30;;
3133;SDS011;1577;49.912;10.924;2022-08-02T13:32:25;1.80;;;1.40;;
3133;SDS011;1577;49.912;10.924;2022-08-02T13:34:55;1.40;;;1.30;;
3133;SDS011;1577;49.912;10.924;2022-08-02T13:37:21;1.47;;;1.20;;
3133;SDS011;1577;49.912;10.924;2022-08-02T13:39:47;1.37;;;1.27;;
3133;SDS011;1577;49.912;10.924;2022-08-02T13:42:13;1.40;;;1.30;;
3133;SDS011;1577;49.912;10.924;2022-08-02T13:44:39;1.63;;;1.53;;
3133;SDS011;1577;49.912;10.924;2022-08-02T13:47:05;1.10;;;1.00;;
3133;SDS011;1577;49.912;10.924;2022-08-02T13:49:32;1.30;;;1.20;;
3133;SDS011;1577;49.912;10.924;2022-08-02T13:51:57;1.57;;;1.47;;
3133;SDS011;1577;49.912;10.924;2022-08-02T13:54:23;1.47;;;1.37;;
3133;SDS011;1577;49.912;10.924;2022-08-02T13:56:49;1.50;;;1.10;;
3133;SDS011;1577;49.912;10.924;2022-08-02T13:59:14;1.93;;;1.30;;
3133;SDS011;1577;49.912;10.924;2022-08-02T14:01:40;1.27;;;1.00;;
3133;SDS011;1577;49.912;10.924;2022-08-02T14:04:05;1.17;;;1.07;;
3133;SDS011;1577;49.912;10.924;2022-08-02T14:06:31;1.73;;;1.40;;
3133;SDS011;1577;49.912;10.924;2022-08-02T14:08:57;1.83;;;1.37;;
3133;SDS011;1577;49.912;10.924;2022-08-02T14:11:23;2.30;;;1.20;;
3133;SDS011;1577;49.912;10.924;2022-08-02T14:13:48;1.27;;;1.10;;
3133;SDS011;1577;49.912;10.924;2022-08-02T14:16:14;2.27;;;1.80;;
3133;SDS011;1577;49.912;10.924;2022-08-02T14:18:40;3.60;;;1.30;;
3133;SDS011;1577;49.912;10.924;2022-08-02T14:21:05;1.97;;;1.50;;
3133;SDS011;1577;49.912;10.924;2022-08-02T14:23:31;1.30;;;1.10;;
3133;SDS011;1577;49.912;10.924;2022-08-02T14:25:57;1.40;;;1.03;;
3133;SDS011;1577;49.912;10.924;2022-08-02T14:28:23;1.40;;;1.13;;
3133;SDS011;1577;49.912;10.924;2022-08-02T14:30:49;1.67;;;1.30;;
3133;SDS011;1577;49.912;10.924;2022-08-02T14:33:15;1.93;;;1.00;;
3133;SDS011;1577;49.912;10.924;2022-08-02T14:35:42;2.50;;;1.10;;
3133;SDS011;1577;49.912;10.924;2022-08-02T14:38:08;1.83;;;1.20;;
3133;SDS011;1577;49.912;10.924;2022-08-02T14:40:34;1.70;;;1.17;;
3133;SDS011;1577;49.912;10.924;2022-08-02T14:43:00;1.97;;;1.47;;
3133;SDS011;1577;49.912;10.924;2022-08-02T14:45:25;1.80;;;1.33;;
3133;SDS011;1577;49.912;10.924;2022-08-02T14:47:53;3.77;;;1.53;;
3133;SDS011;1577;49.912;10.924;2022-08-02T14:50:19;1.93;;;1.10;;
3133;SDS011;1577;49.912;10.924;2022-08-02T14:52:45;1.33;;;1.10;;
3133;SDS011;1577;49.912;10.924;2022-08-02T14:55:11;1.23;;;1.13;;
3133;SDS011;1577;49.912;10.924;2022-08-02T14:57:37;1.20;;;1.10;;
3133;SDS011;1577;49.912;10.924;2022-08-02T15:00:03;2.73;;;1.27;;
3133;SDS011;1577;49.912;10.924;2022-08-02T15:02:30;2.53;;;1.70;;
3133;SDS011;1577;49.912;10.924;2022-08-02T15:04:55;1.40;;;1.20;;
3133;SDS011;1577;49.912;10.924;2022-08-02T15:07:21;2.60;;;1.37;;
3133;SDS011;1577;49.912;10.924;2022-08-02T15:09:47;1.30;;;1.20;;
3133;SDS011;1577;49.912;10.924;2022-08-02T15:12:35;1.23;;;1.03;;
3133;SDS011;1577;49.912;10.924;2022-08-02T15:15:22;1.47;;;1.20;;
3133;SDS011;1577;49.912;10.924;2022-08-02T15:17:50;1.37;;;1.10;;
3133;SDS011;1577;49.912;10.924;2022-08-02T15:20:16;2.30;;;1.00;;
3133;SDS011;1577;49.912;10.924;2022-08-02T15:22:41;1.80;;;1.07;;
3133;SDS011;1577;49.912;10.924;2022-08-02T15:25:07;1.10;;;1.00;;
3133;SDS011;1577;49.912;10.924;2022-08-02T15:27:32;1.00;;;0.90;;
3133;SDS011;1577;49.912;10.924;2022-08-02T15:29:58;1.50;;;1.20;;
3133;SDS011;1577;49.912;10.924;2022-08-02T15:32:24;1.20;;;1.00;;
3133;SDS011;1577;49.912;10.924;2022-08-02T15:34:50;1.20;;;1.10;;
3133;SDS011;1577;49.912;10.924;2022-08-02T15:37:15;2.53;;;1.30;;
3133;SDS011;1577;49.912;10.924;2022-08-02T15:39:41;1.33;;;1.03;;
3133;SDS011;1577;49.912;10.924;2022-08-02T15:42:07;1.47;;;1.10;;